Weather Data

Pearl Creek Farm: 8878 N Farm Road 75, Walnut Grove MO 65770

<== Previous Day (Sunday 05 Jan 2014) | Next Day (Tuesday 07 Jan 2014) ==>

Summary Precipitation Data For Monday 06 January 2014

ElementValueUnits
Precipitation0.03"
New Snow Depth2"
New Snow Water Equivalent0"
Total Snow Depth5"
Total Snow Water Equivalent*0"
NotesSnow continued for much of yesterday, but the sky was clear by nightfall. Bitterly cold this morning (-5oF at 730 hours).
SourcePearl Creek Farm

* Total Snow Water Equivalent is not measured every day.

Summary Temperature Data For Monday 06 January 2014

ElementValueUnits
High Temperature6 oF
Low Temperature-9 oF
Average Temperature-1 oF
High Humidity80 %
Low Humidity61 %
Average Humidity71 %
SourcePearl Creek Farm

Detail Temperature Data For Monday 06 January 2014

Date / TimeTemp (F)RH (%)Dew Pt (F)Report Date / TimeSource
2014-01-06 00:00:00 6 76 0.0 2014-02-09 14:43:36 Pearl Creek Farm
2014-01-06 00:30:00 3 78 -2.3 2014-02-09 14:43:36 Pearl Creek Farm
2014-01-06 01:00:00 3 80 -1.7 2014-02-09 14:43:36 Pearl Creek Farm
2014-01-06 01:30:00 4 78 -1.3 2014-02-09 14:43:36 Pearl Creek Farm
2014-01-06 02:00:00 3 78 -2.4 2014-02-09 14:43:36 Pearl Creek Farm
2014-01-06 02:30:00 3 77 -2.5 2014-02-09 14:43:36 Pearl Creek Farm
2014-01-06 03:00:00 2 76 -3.9 2014-02-09 14:43:36 Pearl Creek Farm
2014-01-06 03:30:00 1 77 -4.5 2014-02-09 14:43:36 Pearl Creek Farm
2014-01-06 04:00:00 1 76 -4.8 2014-02-09 14:43:36 Pearl Creek Farm
2014-01-06 04:30:00 0 73 -6.7 2014-02-09 14:43:36 Pearl Creek Farm
2014-01-06 05:00:00 -2 69 -9.8 2014-02-09 14:43:36 Pearl Creek Farm
2014-01-06 05:30:00 -2 72 -8.9 2014-02-09 14:43:36 Pearl Creek Farm
2014-01-06 06:00:00 -3 74 -9.3 2014-02-09 14:43:36 Pearl Creek Farm
2014-01-06 06:30:00 -3 75 -8.9 2014-02-09 14:43:36 Pearl Creek Farm
2014-01-06 07:00:00 -4 75 -10.0 2014-02-09 14:43:36 Pearl Creek Farm
2014-01-06 07:30:00 -4 72 -10.7 2014-02-09 14:43:36 Pearl Creek Farm
2014-01-06 08:00:00 -5 75 -10.8 2014-02-09 14:43:36 Pearl Creek Farm
2014-01-06 08:30:00 -4 76 -9.7 2014-02-09 14:43:36 Pearl Creek Farm
2014-01-06 09:00:00 -3 73 -9.5 2014-02-09 14:43:36 Pearl Creek Farm
2014-01-06 09:30:00 -2 71 -9.2 2014-02-09 14:43:36 Pearl Creek Farm
2014-01-06 10:00:00 -1 70 -8.5 2014-02-09 14:43:36 Pearl Creek Farm
2014-01-06 10:30:00 1 66 -7.6 2014-02-09 14:43:36 Pearl Creek Farm
2014-01-06 11:00:00 1 68 -7.2 2014-02-09 14:43:36 Pearl Creek Farm
2014-01-06 11:30:00 2 67 -6.5 2014-02-09 14:43:36 Pearl Creek Farm
2014-01-06 12:00:00 2 65 -7.2 2014-02-09 14:43:36 Pearl Creek Farm
2014-01-06 12:30:00 4 64 -5.4 2014-02-09 14:43:36 Pearl Creek Farm
2014-01-06 13:00:00 4 63 -5.7 2014-02-09 14:43:36 Pearl Creek Farm
2014-01-06 13:30:00 5 63 -4.8 2014-02-09 14:43:36 Pearl Creek Farm
2014-01-06 14:00:00 5 61 -5.4 2014-02-09 14:43:36 Pearl Creek Farm
2014-01-06 14:30:00 5 62 -5.1 2014-02-09 14:43:36 Pearl Creek Farm
2014-01-06 15:00:00 5 62 -5.1 2014-02-09 14:43:36 Pearl Creek Farm
2014-01-06 15:30:00 5 62 -5.1 2014-02-09 14:43:36 Pearl Creek Farm
2014-01-06 16:00:00 6 62 -4.3 2014-02-09 14:43:36 Pearl Creek Farm
2014-01-06 16:30:00 5 61 -5.4 2014-02-09 14:43:36 Pearl Creek Farm
2014-01-06 17:00:00 4 62 -6.1 2014-02-09 14:43:36 Pearl Creek Farm
2014-01-06 17:30:00 3 65 -6.2 2014-02-09 14:43:36 Pearl Creek Farm
2014-01-06 18:00:00 1 68 -7.2 2014-02-09 14:43:36 Pearl Creek Farm
2014-01-06 18:30:00 -2 70 -9.5 2014-02-09 14:43:36 Pearl Creek Farm
2014-01-06 19:00:00 -6 70 -13.2 2014-02-09 14:43:36 Pearl Creek Farm
2014-01-06 19:30:00 -8 74 -14.2 2014-02-09 14:43:36 Pearl Creek Farm
2014-01-06 20:00:00 -8 75 -13.9 2014-02-09 14:43:36 Pearl Creek Farm
2014-01-06 20:30:00 -9 76 -14.5 2014-02-09 14:43:36 Pearl Creek Farm
2014-01-06 21:00:00 -9 75 -14.7 2014-02-09 14:43:36 Pearl Creek Farm
2014-01-06 21:30:00 -9 77 -14.3 2014-02-09 14:43:36 Pearl Creek Farm
2014-01-06 22:00:00 -8 77 -13.4 2014-02-09 14:43:36 Pearl Creek Farm
2014-01-06 22:30:00 -8 77 -13.4 2014-02-09 14:43:36 Pearl Creek Farm
2014-01-06 23:00:00 -9 75 -14.7 2014-02-09 14:43:36 Pearl Creek Farm
2014-01-06 23:30:00 -9 76 -14.5 2014-02-09 14:43:36 Pearl Creek Farm

A total of 48 rows are displayed.